createdAt,value
2019-05-15T00:00:32.541Z,0.00
2019-05-15T00:01:29.333Z,0.00
2019-05-15T00:02:29.228Z,0.00
2019-05-15T00:03:29.121Z,0.00
2019-05-15T00:04:29.015Z,0.00
2019-05-15T00:05:29.204Z,0.00
2019-05-15T00:06:28.819Z,0.00
2019-05-15T00:07:29.448Z,0.00
2019-05-15T00:08:28.818Z,0.00
2019-05-15T00:09:28.723Z,0.00
2019-05-15T00:10:28.778Z,0.00
2019-05-15T00:11:28.754Z,0.00
2019-05-15T00:12:28.482Z,0.00
2019-05-15T00:13:28.382Z,0.00
2019-05-15T00:14:28.789Z,0.00
2019-05-15T00:15:27.999Z,0.00
2019-05-15T00:16:29.051Z,0.00
2019-05-15T00:17:28.337Z,0.00
2019-05-15T00:18:28.182Z,0.00
2019-05-15T00:19:28.465Z,0.00
2019-05-15T00:20:29.345Z,0.00
2019-05-15T00:21:28.797Z,0.00
2019-05-15T00:22:29.020Z,0.00
2019-05-15T00:23:28.939Z,0.00
2019-05-15T00:24:28.732Z,0.00
2019-05-15T00:25:28.290Z,0.00
2019-05-15T00:26:26.696Z,0.00
2019-05-15T00:27:28.382Z,0.00
2019-05-15T00:28:28.042Z,0.00
2019-05-15T00:29:28.732Z,0.00
2019-05-15T00:30:26.298Z,0.00
2019-05-15T00:31:26.166Z,0.00
2019-05-15T00:32:28.104Z,0.00
2019-05-15T00:33:25.959Z,0.00
2019-05-15T00:34:25.851Z,0.00
2019-05-15T00:35:28.569Z,0.00
2019-05-15T00:36:25.638Z,0.00
2019-05-15T00:37:25.534Z,0.00
2019-05-15T00:38:25.428Z,0.00
2019-05-15T00:39:25.325Z,0.00
2019-05-15T00:40:25.215Z,0.00
2019-05-15T00:41:25.111Z,0.00
2019-05-15T00:42:25.006Z,0.00
2019-05-15T00:43:24.900Z,0.00
2019-05-15T00:44:24.793Z,0.00
2019-05-15T00:45:24.688Z,0.00
2019-05-15T00:46:24.590Z,0.00
2019-05-15T00:47:24.479Z,0.00
2019-05-15T00:48:24.372Z,0.00
2019-05-15T00:49:24.351Z,0.00
2019-05-15T00:50:24.160Z,0.00
2019-05-15T00:51:24.051Z,0.00
2019-05-15T00:52:23.947Z,0.00
2019-05-15T00:53:23.844Z,0.00
2019-05-15T00:54:23.737Z,0.00
2019-05-15T00:55:23.631Z,0.00
2019-05-15T00:56:23.526Z,0.00
2019-05-15T00:57:23.420Z,0.00
2019-05-15T00:58:23.320Z,0.00
2019-05-15T00:59:26.699Z,0.00
2019-05-15T01:00:23.104Z,0.00
2019-05-15T01:01:22.997Z,0.00
2019-05-15T01:02:22.893Z,0.00
2019-05-15T01:03:22.786Z,0.00
2019-05-15T01:04:22.680Z,0.00
2019-05-15T01:05:22.574Z,0.00
2019-05-15T01:06:22.466Z,0.00
2019-05-15T01:07:22.362Z,0.00
2019-05-15T01:08:22.311Z,0.00
2019-05-15T01:09:22.152Z,0.00
2019-05-15T01:10:22.046Z,0.00
2019-05-15T01:11:21.944Z,0.00
2019-05-15T01:12:21.834Z,0.00
2019-05-15T01:13:21.727Z,0.00
2019-05-15T01:14:21.623Z,0.00
2019-05-15T01:15:21.522Z,0.00
2019-05-15T01:16:21.411Z,0.00
2019-05-15T01:17:21.304Z,0.00
2019-05-15T01:18:21.200Z,0.00
2019-05-15T01:19:21.092Z,0.00
2019-05-15T01:20:20.991Z,0.00
2019-05-15T01:21:20.892Z,0.00
2019-05-15T01:22:20.778Z,0.00
2019-05-15T01:23:20.672Z,0.00
2019-05-15T01:24:20.561Z,0.00
2019-05-15T01:25:20.458Z,0.00
2019-05-15T01:26:20.352Z,0.00
2019-05-15T01:27:20.324Z,0.00
2019-05-15T01:28:20.157Z,0.00
2019-05-15T01:29:20.038Z,0.00
2019-05-15T01:30:19.929Z,0.00
2019-05-15T01:31:19.822Z,0.00
2019-05-15T01:32:19.717Z,0.00
2019-05-15T01:33:19.612Z,0.00
2019-05-15T01:34:19.507Z,0.00
2019-05-15T01:35:19.398Z,0.00
2019-05-15T01:36:19.451Z,0.00
2019-05-15T01:37:19.188Z,0.00
2019-05-15T01:38:19.081Z,0.00
2019-05-15T01:39:18.980Z,0.00
2019-05-15T01:40:18.870Z,0.00
2019-05-15T01:41:19.030Z,0.00
2019-05-15T01:42:18.759Z,0.00
2019-05-15T01:43:18.870Z,0.00
2019-05-15T01:44:18.445Z,0.00
2019-05-15T01:45:18.924Z,0.00
2019-05-15T01:46:19.073Z,0.00
2019-05-15T01:47:18.938Z,0.00
2019-05-15T01:48:18.988Z,0.00
2019-05-15T01:49:18.684Z,0.00
2019-05-15T01:50:18.508Z,0.00
2019-05-15T01:51:18.466Z,0.00
2019-05-15T01:52:18.727Z,0.00
2019-05-15T01:53:18.667Z,0.00
2019-05-15T01:54:18.641Z,0.00
2019-05-15T01:55:18.178Z,0.00
2019-05-15T01:56:18.853Z,0.00
2019-05-15T01:57:18.164Z,0.00
2019-05-15T01:58:18.657Z,0.00
2019-05-15T01:59:18.785Z,0.00
2019-05-15T02:00:18.696Z,0.00
2019-05-15T02:01:18.896Z,0.00
2019-05-15T02:02:18.577Z,0.00
2019-05-15T02:03:18.186Z,0.00
2019-05-15T02:04:16.326Z,0.00
2019-05-15T02:05:16.247Z,0.00
2019-05-15T02:06:18.551Z,0.00
2019-05-15T02:07:16.008Z,0.00
2019-05-15T02:08:15.908Z,0.00
2019-05-15T02:09:15.797Z,0.00
2019-05-15T02:10:15.692Z,0.00
2019-05-15T02:11:17.979Z,0.00
2019-05-15T02:12:15.479Z,0.00
2019-05-15T02:13:15.373Z,0.00
2019-05-15T02:14:15.268Z,0.00
2019-05-15T02:15:15.161Z,0.00
2019-05-15T02:16:15.054Z,0.00
2019-05-15T02:17:14.949Z,0.00
2019-05-15T02:18:14.842Z,0.00
2019-05-15T02:19:14.738Z,0.00
2019-05-15T02:20:14.631Z,0.00
2019-05-15T02:21:14.525Z,0.00
2019-05-15T02:22:14.438Z,0.00
2019-05-15T02:23:14.311Z,0.00
2019-05-15T02:24:14.242Z,0.00
2019-05-15T02:25:14.158Z,0.00
2019-05-15T02:26:13.993Z,0.00
2019-05-15T02:27:13.886Z,0.00
2019-05-15T02:28:13.781Z,0.00
2019-05-15T02:29:16.606Z,0.00
2019-05-15T02:30:26.717Z,0.00
2019-05-15T02:31:13.462Z,0.00
2019-05-15T02:32:13.359Z,0.00
2019-05-15T02:33:13.249Z,0.00
2019-05-15T02:34:13.147Z,0.00
2019-05-15T02:35:13.038Z,0.00
2019-05-15T02:36:12.934Z,0.00
2019-05-15T02:37:12.824Z,0.00
2019-05-15T02:38:15.403Z,0.00
2019-05-15T02:39:12.621Z,0.00
2019-05-15T02:40:12.514Z,0.00
2019-05-15T02:41:12.401Z,0.00
2019-05-15T02:42:12.299Z,0.00
2019-05-15T02:43:12.202Z,0.00
2019-05-15T02:44:12.126Z,0.00
2019-05-15T02:45:11.974Z,0.00
2019-05-15T02:46:11.869Z,0.00
2019-05-15T02:47:11.761Z,0.00
2019-05-15T02:48:11.659Z,0.00
2019-05-15T02:49:11.550Z,0.00
2019-05-15T02:50:11.493Z,0.00
2019-05-15T02:51:11.339Z,0.00
2019-05-15T02:52:11.232Z,0.00
2019-05-15T02:53:11.125Z,0.00
2019-05-15T02:54:11.017Z,0.00
2019-05-15T02:55:10.921Z,0.00
2019-05-15T02:56:10.811Z,0.00
2019-05-15T02:57:10.699Z,0.00
2019-05-15T02:58:10.796Z,0.00
2019-05-15T02:59:10.484Z,0.00
2019-05-15T03:00:11.192Z,0.00
2019-05-15T03:01:10.277Z,0.00
2019-05-15T03:02:10.429Z,0.00
2019-05-15T03:03:10.115Z,0.00
2019-05-15T03:04:09.955Z,0.00
2019-05-15T03:05:09.898Z,0.00
2019-05-15T03:06:10.124Z,0.00
2019-05-15T03:07:09.801Z,5.63
2019-05-15T03:08:09.863Z,5.63
2019-05-15T03:09:09.741Z,5.63
2019-05-15T03:10:09.613Z,5.63
2019-05-15T03:11:09.858Z,5.63
2019-05-15T03:12:09.227Z,5.63
2019-05-15T03:13:09.768Z,5.63
2019-05-15T03:14:09.360Z,5.63
2019-05-15T03:15:09.697Z,5.63
2019-05-15T03:16:10.149Z,5.63
2019-05-15T03:17:09.800Z,11.25
2019-05-15T03:18:09.551Z,11.25
2019-05-15T03:19:09.958Z,11.25
2019-05-15T03:20:10.306Z,11.25
2019-05-15T03:21:09.614Z,11.25
2019-05-15T03:22:09.731Z,11.25
2019-05-15T03:23:09.691Z,11.25
2019-05-15T03:24:10.210Z,16.88
2019-05-15T03:25:10.569Z,16.88
2019-05-15T03:26:08.890Z,16.88
2019-05-15T03:27:09.140Z,16.88
2019-05-15T03:28:10.577Z,16.88
2019-05-15T03:29:09.742Z,16.88
2019-05-15T03:30:12.204Z,22.50
2019-05-15T03:31:30.439Z,22.50
2019-05-15T03:32:24.430Z,22.50
2019-05-15T03:33:15.803Z,22.50
2019-05-15T03:34:18.510Z,22.50
2019-05-15T03:35:12.397Z,22.50
2019-05-15T03:36:12.479Z,28.13
2019-05-15T03:37:11.650Z,28.13
2019-05-15T03:38:09.191Z,28.13
2019-05-15T03:39:06.227Z,28.13
2019-05-15T03:40:06.127Z,28.13
2019-05-15T03:41:06.064Z,28.13
2019-05-15T03:42:05.919Z,33.75
2019-05-15T03:43:08.873Z,33.75
2019-05-15T03:44:05.695Z,33.75
2019-05-15T03:45:05.587Z,33.75
2019-05-15T03:46:08.742Z,33.75
2019-05-15T03:47:05.374Z,39.38
2019-05-15T03:48:05.268Z,39.38
2019-05-15T03:49:05.165Z,39.38
2019-05-15T03:50:05.061Z,39.38
2019-05-15T03:51:04.958Z,39.38
2019-05-15T03:52:04.843Z,39.38
2019-05-15T03:53:04.746Z,45.00
2019-05-15T03:54:04.630Z,45.00
2019-05-15T03:55:04.525Z,45.00
2019-05-15T03:56:04.430Z,45.00
2019-05-15T03:57:04.321Z,50.63
2019-05-15T03:58:04.208Z,50.63
2019-05-15T03:59:04.107Z,50.63
2019-05-15T04:00:04.060Z,50.63
2019-05-15T04:01:03.887Z,56.25
2019-05-15T04:02:03.780Z,56.25
2019-05-15T04:03:03.675Z,61.88
2019-05-15T04:04:03.571Z,61.88
2019-05-15T04:05:03.461Z,67.50
2019-05-15T04:06:03.356Z,73.13
2019-05-15T04:07:03.247Z,78.75
2019-05-15T04:08:03.142Z,84.38
2019-05-15T04:09:03.038Z,90.00
2019-05-15T04:10:02.933Z,95.63
2019-05-15T04:11:02.829Z,95.63
2019-05-15T04:12:02.723Z,95.63
2019-05-15T04:13:02.611Z,101.25
2019-05-15T04:14:02.539Z,101.25
2019-05-15T04:15:02.398Z,106.88
2019-05-15T04:16:02.292Z,106.88
2019-05-15T04:17:02.190Z,106.88
2019-05-15T04:18:02.087Z,106.88
2019-05-15T04:19:02.020Z,112.50
2019-05-15T04:20:01.873Z,112.50
2019-05-15T04:21:01.764Z,112.50
2019-05-15T04:22:01.657Z,118.13
2019-05-15T04:23:01.556Z,118.13
2019-05-15T04:24:01.446Z,118.13
2019-05-15T04:25:01.344Z,118.13
2019-05-15T04:26:01.245Z,123.75
2019-05-15T04:27:01.136Z,123.75
2019-05-15T04:28:01.027Z,123.75
2019-05-15T04:29:00.917Z,118.13
2019-05-15T04:30:00.813Z,118.13
2019-05-15T04:31:00.708Z,118.13
2019-05-15T04:32:05.375Z,118.13
2019-05-15T04:33:00.493Z,112.50
2019-05-15T04:34:00.400Z,112.50
2019-05-15T04:35:00.286Z,106.88
2019-05-15T04:36:00.178Z,101.25
2019-05-15T04:37:00.073Z,95.63
2019-05-15T04:38:00.035Z,101.25
2019-05-15T04:38:59.867Z,101.25
2019-05-15T04:39:59.962Z,106.88
2019-05-15T04:40:59.652Z,106.88
2019-05-15T04:41:59.548Z,112.50
2019-05-15T04:42:59.489Z,112.50
2019-05-15T04:43:59.736Z,112.50
2019-05-15T04:44:59.611Z,112.50
2019-05-15T04:46:02.847Z,118.13
2019-05-15T04:46:59.649Z,118.13
2019-05-15T04:47:58.935Z,123.75
2019-05-15T04:48:59.638Z,129.38
2019-05-15T04:49:59.039Z,140.63
2019-05-15T04:50:58.979Z,146.25
2019-05-15T04:52:03.136Z,157.50
2019-05-15T04:52:59.340Z,174.38
2019-05-15T04:53:58.729Z,185.63
2019-05-15T04:54:59.788Z,191.25
2019-05-15T04:55:59.773Z,202.50
2019-05-15T04:56:59.438Z,213.75
2019-05-15T04:57:59.251Z,219.38
2019-05-15T04:59:00.091Z,225.00
2019-05-15T04:59:58.758Z,225.00
2019-05-15T05:00:59.966Z,230.63
2019-05-15T05:02:16.394Z,236.25
2019-05-15T05:02:58.837Z,247.50
2019-05-15T05:03:58.910Z,258.75
2019-05-15T05:04:58.830Z,264.38
2019-05-15T05:05:59.167Z,264.38
2019-05-15T05:06:58.694Z,264.38
2019-05-15T05:07:59.537Z,264.38
2019-05-15T05:08:59.483Z,253.13
2019-05-15T05:09:59.433Z,253.13
2019-05-15T05:10:59.181Z,258.75
2019-05-15T05:11:58.253Z,264.38
2019-05-15T05:12:58.998Z,270.00
2019-05-15T05:13:58.939Z,270.00
2019-05-15T05:14:58.615Z,275.63
2019-05-15T05:15:58.474Z,275.63
2019-05-15T05:16:55.953Z,275.63
2019-05-15T05:17:58.413Z,281.25
2019-05-15T05:18:55.668Z,281.25
2019-05-15T05:19:55.561Z,286.88
2019-05-15T05:20:57.631Z,292.50
2019-05-15T05:21:55.354Z,298.13
2019-05-15T05:22:55.251Z,303.75
2019-05-15T05:23:55.146Z,315.00
2019-05-15T05:24:55.042Z,331.88
2019-05-15T05:25:54.937Z,331.88
2019-05-15T05:26:54.837Z,337.50
2019-05-15T05:27:54.730Z,331.88
2019-05-15T05:28:54.628Z,326.25
2019-05-15T05:29:54.522Z,315.00
2019-05-15T05:30:54.419Z,309.38
2019-05-15T05:31:54.320Z,309.38
2019-05-15T05:32:54.212Z,309.38
2019-05-15T05:33:54.112Z,309.38
2019-05-15T05:34:54.006Z,320.63
2019-05-15T05:35:53.925Z,320.63
2019-05-15T05:36:53.798Z,326.25
2019-05-15T05:37:53.693Z,337.50
2019-05-15T05:38:53.594Z,337.50
2019-05-15T05:39:53.485Z,348.75
2019-05-15T05:40:53.384Z,354.38
2019-05-15T05:41:53.280Z,360.00
2019-05-15T05:42:53.176Z,360.00
2019-05-15T05:43:53.075Z,365.63
2019-05-15T05:44:52.971Z,371.25
2019-05-15T05:45:52.872Z,376.88
2019-05-15T05:46:52.764Z,382.50
2019-05-15T05:47:52.661Z,388.13
2019-05-15T05:48:52.557Z,388.13
2019-05-15T05:49:52.452Z,388.13
2019-05-15T05:50:52.352Z,388.13
2019-05-15T05:51:52.246Z,382.50
2019-05-15T05:52:52.146Z,382.50
2019-05-15T05:53:52.054Z,376.88
2019-05-15T05:54:51.972Z,382.50
2019-05-15T05:55:53.543Z,393.75
2019-05-15T05:56:51.732Z,405.00
2019-05-15T05:57:51.630Z,410.63
2019-05-15T05:58:51.533Z,416.25
2019-05-15T05:59:51.426Z,421.88
2019-05-15T06:00:51.328Z,433.13
2019-05-15T06:01:51.219Z,433.13
2019-05-15T06:02:52.226Z,427.50
2019-05-15T06:03:51.014Z,421.88
2019-05-15T06:04:50.907Z,416.25
2019-05-15T06:05:50.816Z,410.63
2019-05-15T06:07:06.106Z,405.00
2019-05-15T06:07:50.602Z,399.38
2019-05-15T06:08:50.503Z,393.75
2019-05-15T06:09:50.398Z,393.75
2019-05-15T06:10:50.298Z,393.75
2019-05-15T06:11:50.191Z,393.75
2019-05-15T06:12:50.093Z,393.75
2019-05-15T06:13:52.460Z,393.75
2019-05-15T06:14:49.935Z,399.38
2019-05-15T06:15:49.796Z,405.00
2019-05-15T06:16:49.685Z,410.63
2019-05-15T06:17:49.580Z,416.25
2019-05-15T06:18:49.475Z,427.50
2019-05-15T06:19:49.374Z,433.13
2019-05-15T06:20:49.600Z,433.13
2019-05-15T06:21:57.205Z,438.75
2019-05-15T06:22:49.067Z,444.38
2019-05-15T06:23:55.703Z,444.38
2019-05-15T06:24:48.865Z,450.00
2019-05-15T06:25:48.760Z,455.63
2019-05-15T06:26:48.657Z,455.63
2019-05-15T06:27:48.556Z,461.25
2019-05-15T06:28:48.999Z,466.88
2019-05-15T06:29:48.564Z,472.50
2019-05-15T06:30:48.629Z,478.13
2019-05-15T06:31:48.388Z,483.75
2019-05-15T06:33:01.867Z,489.38
2019-05-15T06:33:49.113Z,495.00
2019-05-15T06:34:48.486Z,511.88
2019-05-15T06:35:49.061Z,534.38
2019-05-15T06:36:48.601Z,562.50
2019-05-15T06:37:48.463Z,573.75
2019-05-15T06:38:48.369Z,613.13
2019-05-15T06:39:48.155Z,680.63
2019-05-15T06:40:48.623Z,731.25
2019-05-15T06:41:48.268Z,793.13
2019-05-15T06:42:48.347Z,798.75
2019-05-15T06:43:48.405Z,961.88
2019-05-15T06:44:48.397Z,933.75
2019-05-15T06:45:48.647Z,1001.25
2019-05-15T06:46:48.314Z,1141.88
2019-05-15T06:47:48.213Z,1226.25
2019-05-15T06:48:48.469Z,1366.88
2019-05-15T06:49:48.470Z,1305.00
2019-05-15T06:50:48.600Z,2401.88
2019-05-15T06:51:48.546Z,2621.25
2019-05-15T06:52:48.515Z,2553.75
2019-05-15T06:53:45.921Z,2908.13
2019-05-15T06:54:45.886Z,2863.13
2019-05-15T06:55:48.297Z,2683.13
2019-05-15T06:56:45.623Z,1985.63
2019-05-15T06:57:45.525Z,2278.13
2019-05-15T06:58:45.423Z,1974.38
2019-05-15T06:59:45.331Z,1687.50
2019-05-15T07:00:45.229Z,1710.00
2019-05-15T07:01:45.134Z,1980.00
2019-05-15T07:02:45.034Z,2733.75
2019-05-15T07:03:44.947Z,2846.25
2019-05-15T07:04:44.841Z,2902.50
2019-05-15T07:05:44.743Z,2874.38
2019-05-15T07:06:44.648Z,2896.88
2019-05-15T07:07:44.548Z,2902.50
2019-05-15T07:08:44.455Z,2913.75
2019-05-15T07:09:44.362Z,2913.75
2019-05-15T07:10:44.264Z,2823.75
2019-05-15T07:11:44.167Z,2840.63
2019-05-15T07:12:44.073Z,2750.63
2019-05-15T07:13:43.977Z,2475.00
2019-05-15T07:14:43.897Z,2176.88
2019-05-15T07:15:43.857Z,1845.00
2019-05-15T07:16:43.692Z,1625.63
2019-05-15T07:17:43.598Z,1850.63
2019-05-15T07:18:43.505Z,2081.25
2019-05-15T07:19:43.414Z,950.63
2019-05-15T07:20:43.314Z,2188.13
2019-05-15T07:21:43.221Z,1282.50
2019-05-15T07:22:43.126Z,2356.88
2019-05-15T07:23:43.036Z,2857.50
2019-05-15T07:24:42.937Z,1850.63
2019-05-15T07:25:42.847Z,2958.75
2019-05-15T07:26:42.748Z,3211.88
2019-05-15T07:27:42.655Z,3150.00
2019-05-15T07:28:42.563Z,3256.88
2019-05-15T07:29:42.469Z,1980.00
2019-05-15T07:30:42.372Z,1659.38
2019-05-15T07:31:42.279Z,1918.13
2019-05-15T07:32:42.184Z,3189.38
2019-05-15T07:33:43.851Z,2565.00
2019-05-15T07:34:41.996Z,3234.38
2019-05-15T07:35:41.902Z,3088.13
2019-05-15T07:36:41.835Z,3211.88
2019-05-15T07:37:41.777Z,3391.88
2019-05-15T07:38:41.621Z,3403.13
2019-05-15T07:39:41.536Z,3386.25
2019-05-15T07:40:41.433Z,3459.38
2019-05-15T07:41:41.339Z,3504.38
2019-05-15T07:42:41.247Z,3521.25
2019-05-15T07:43:41.154Z,3577.50
2019-05-15T07:44:41.061Z,3650.63
2019-05-15T07:45:43.620Z,2514.38
2019-05-15T07:46:40.873Z,1968.75
2019-05-15T07:47:40.781Z,3611.25
2019-05-15T07:48:43.814Z,2148.75
2019-05-15T07:49:40.594Z,2520.00
2019-05-15T07:50:40.506Z,961.88
2019-05-15T07:51:40.408Z,708.75
2019-05-15T07:52:40.454Z,675.00
2019-05-15T07:53:40.305Z,691.88
2019-05-15T07:54:40.127Z,725.63
2019-05-15T07:55:40.038Z,765.00
2019-05-15T07:56:39.942Z,798.75
2019-05-15T07:57:39.886Z,787.50
2019-05-15T07:58:39.808Z,765.00
2019-05-15T07:59:39.743Z,753.75
2019-05-15T08:00:39.662Z,748.13
2019-05-15T08:01:39.473Z,742.50
2019-05-15T08:02:39.372Z,736.88
2019-05-15T08:03:53.871Z,765.00
2019-05-15T08:04:39.181Z,821.25
2019-05-15T08:05:54.692Z,871.88
2019-05-15T08:06:39.059Z,894.38
2019-05-15T08:07:39.010Z,900.00
2019-05-15T08:08:39.297Z,911.25
2019-05-15T08:09:39.127Z,916.88
2019-05-15T08:10:39.704Z,911.25
2019-05-15T08:11:39.187Z,933.75
2019-05-15T08:12:39.274Z,928.13
2019-05-15T08:13:38.464Z,900.00
2019-05-15T08:14:38.803Z,900.00
2019-05-15T08:15:38.305Z,916.88
2019-05-15T08:16:39.470Z,945.00
2019-05-15T08:17:59.284Z,978.75
2019-05-15T08:18:39.376Z,1023.75
2019-05-15T08:19:38.373Z,1068.75
2019-05-15T08:20:38.534Z,1085.63
2019-05-15T08:21:38.500Z,1063.13
2019-05-15T08:22:38.251Z,1063.13
2019-05-15T08:23:39.070Z,1068.75
2019-05-15T08:24:39.196Z,1130.63
2019-05-15T08:25:38.918Z,1192.50
2019-05-15T08:26:37.944Z,1299.38
2019-05-15T08:27:38.265Z,1372.50
2019-05-15T08:28:38.264Z,1456.88
2019-05-15T08:29:38.305Z,1462.50
2019-05-15T08:30:38.753Z,1518.75
2019-05-15T08:31:38.668Z,1642.50
2019-05-15T08:32:38.701Z,1575.00
2019-05-15T08:33:38.712Z,1428.75
2019-05-15T08:34:38.319Z,1372.50
2019-05-15T08:35:38.499Z,1203.75
2019-05-15T08:36:38.384Z,1136.25
2019-05-15T08:37:38.294Z,1080.00
2019-05-15T08:38:38.149Z,1091.25
2019-05-15T08:39:38.008Z,1136.25
2019-05-15T08:40:40.752Z,1080.00
2019-05-15T08:41:35.633Z,1029.38
2019-05-15T08:42:35.507Z,1119.38
2019-05-15T08:43:35.412Z,1102.50
2019-05-15T08:44:35.317Z,1051.88
2019-05-15T08:45:35.220Z,1080.00
2019-05-15T08:46:35.130Z,1113.75
2019-05-15T08:47:35.029Z,1164.38
2019-05-15T08:48:34.931Z,1260.00
2019-05-15T08:49:34.847Z,1203.75
2019-05-15T08:50:34.735Z,1113.75
2019-05-15T08:51:34.643Z,1096.88
2019-05-15T08:52:34.544Z,1125.00
2019-05-15T08:53:34.453Z,1136.25
2019-05-15T08:54:34.347Z,1170.00
2019-05-15T08:55:34.259Z,1186.88
2019-05-15T08:56:34.155Z,1378.13
2019-05-15T08:57:34.074Z,1395.00
2019-05-15T08:58:33.962Z,1366.88
2019-05-15T08:59:33.862Z,1220.63
2019-05-15T09:00:33.771Z,1310.63
2019-05-15T09:01:33.722Z,1333.13
2019-05-15T09:02:33.576Z,1293.75
2019-05-15T09:03:33.477Z,1333.13
2019-05-15T09:04:35.061Z,1321.88
2019-05-15T09:05:33.284Z,1383.75
2019-05-15T09:06:33.188Z,1316.25
2019-05-15T09:07:33.092Z,1198.13
2019-05-15T09:08:32.997Z,1085.63
2019-05-15T09:09:32.898Z,1018.13
2019-05-15T09:10:32.801Z,978.75
2019-05-15T09:11:32.707Z,978.75
2019-05-15T09:12:32.612Z,984.38
2019-05-15T09:13:32.516Z,1035.00
2019-05-15T09:14:32.417Z,1063.13
2019-05-15T09:15:32.337Z,1186.88
2019-05-15T09:16:32.223Z,1558.13
2019-05-15T09:17:32.126Z,1552.50
2019-05-15T09:18:32.038Z,1423.13
2019-05-15T09:19:31.936Z,1485.00
2019-05-15T09:20:31.843Z,1670.63
2019-05-15T09:21:31.745Z,1524.38
2019-05-15T09:22:31.702Z,1383.75
2019-05-15T09:23:31.574Z,1350.00
2019-05-15T09:24:31.454Z,1327.50
2019-05-15T09:25:31.359Z,1563.75
2019-05-15T09:26:31.262Z,1743.75
2019-05-15T09:27:31.251Z,1608.75
2019-05-15T09:28:31.158Z,1507.50
2019-05-15T09:29:31.060Z,1434.38
2019-05-15T09:30:30.966Z,1355.63
2019-05-15T09:31:30.869Z,1327.50
2019-05-15T09:32:30.773Z,1395.00
2019-05-15T09:33:30.689Z,1563.75
2019-05-15T09:34:46.741Z,1591.88
2019-05-15T09:35:30.488Z,1980.00
2019-05-15T09:36:30.398Z,2778.75
2019-05-15T09:37:33.439Z,2908.13
2019-05-15T09:38:30.230Z,2716.88
2019-05-15T09:39:30.104Z,3763.13
2019-05-15T09:40:42.249Z,3487.50
2019-05-15T09:41:29.915Z,2205.00
2019-05-15T09:42:29.819Z,1721.25
2019-05-15T09:43:29.724Z,1890.00
2019-05-15T09:44:29.708Z,1923.75
2019-05-15T09:45:29.535Z,2221.88
2019-05-15T09:46:29.446Z,2823.75
2019-05-15T09:47:29.629Z,2919.38
2019-05-15T09:48:29.251Z,3526.88
2019-05-15T09:49:29.156Z,3240.00
2019-05-15T09:50:29.068Z,3628.13
2019-05-15T09:51:29.117Z,3729.38
2019-05-15T09:52:29.874Z,4156.88
2019-05-15T09:53:28.784Z,4651.88
2019-05-15T09:54:29.327Z,4955.63
2019-05-15T09:55:28.609Z,4072.50
2019-05-15T09:56:29.118Z,2238.75
2019-05-15T09:57:30.263Z,1901.25
2019-05-15T09:58:30.310Z,1569.38
2019-05-15T09:59:28.312Z,1591.88
2019-05-15T10:00:29.284Z,1968.75
2019-05-15T10:01:28.500Z,1721.25
2019-05-15T10:02:28.433Z,1271.25
2019-05-15T10:03:28.227Z,1186.88
2019-05-15T10:04:28.689Z,1203.75
2019-05-15T10:05:28.113Z,1192.50
2019-05-15T10:06:28.649Z,1175.63
2019-05-15T10:07:28.566Z,1209.38
2019-05-15T10:08:29.283Z,1243.13
2019-05-15T10:09:28.420Z,1260.00
2019-05-15T10:10:28.459Z,1209.38
2019-05-15T10:11:28.936Z,1170.00
2019-05-15T10:12:34.364Z,1023.75
2019-05-15T10:13:28.823Z,990.00
2019-05-15T10:14:29.415Z,1001.25
2019-05-15T10:15:26.747Z,1383.75
2019-05-15T10:16:26.656Z,973.13
2019-05-15T10:17:28.943Z,967.50
2019-05-15T10:18:28.245Z,978.75
2019-05-15T10:19:28.854Z,1046.25
2019-05-15T10:20:28.963Z,1170.00
2019-05-15T10:21:29.629Z,1186.88
2019-05-15T10:22:28.174Z,1485.00
2019-05-15T10:23:28.863Z,1513.13
2019-05-15T10:24:27.981Z,2098.13
2019-05-15T10:25:28.021Z,2598.75
2019-05-15T10:26:25.715Z,1299.38
2019-05-15T10:27:25.662Z,1068.75
2019-05-15T10:28:25.603Z,961.88
2019-05-15T10:29:25.434Z,900.00
2019-05-15T10:30:28.231Z,849.38
2019-05-15T10:31:25.245Z,815.63
2019-05-15T10:32:25.067Z,804.38
2019-05-15T10:33:24.972Z,793.13
2019-05-15T10:34:24.875Z,793.13
2019-05-15T10:35:28.586Z,804.38
2019-05-15T10:36:24.691Z,821.25
2019-05-15T10:37:24.596Z,843.75
2019-05-15T10:38:24.502Z,866.25
2019-05-15T10:39:24.405Z,883.13
2019-05-15T10:40:24.311Z,883.13
2019-05-15T10:41:24.217Z,860.63
2019-05-15T10:42:24.128Z,849.38
2019-05-15T10:43:24.033Z,838.13
2019-05-15T10:44:23.930Z,804.38
2019-05-15T10:45:23.836Z,770.63
2019-05-15T10:46:23.739Z,742.50
2019-05-15T10:47:23.645Z,725.63
2019-05-15T10:48:23.592Z,714.38
2019-05-15T10:49:23.520Z,725.63
2019-05-15T10:50:23.362Z,759.38
2019-05-15T10:51:23.262Z,821.25
2019-05-15T10:52:23.165Z,956.25
2019-05-15T10:53:23.073Z,877.50
2019-05-15T10:54:22.991Z,720.00
2019-05-15T10:55:22.879Z,725.63
2019-05-15T10:56:22.805Z,776.25
2019-05-15T10:57:22.692Z,815.63
2019-05-15T10:58:22.593Z,849.38
2019-05-15T10:59:22.496Z,877.50
2019-05-15T11:00:22.402Z,922.50
2019-05-15T11:01:22.303Z,973.13
2019-05-15T11:02:22.206Z,1001.25
2019-05-15T11:03:22.110Z,1006.88
2019-05-15T11:04:22.013Z,978.75
2019-05-15T11:05:21.927Z,939.38
2019-05-15T11:06:21.823Z,888.75
2019-05-15T11:07:21.732Z,832.50
2019-05-15T11:08:21.628Z,798.75
2019-05-15T11:09:21.579Z,759.38
2019-05-15T11:10:21.512Z,731.25
2019-05-15T11:11:21.343Z,720.00
2019-05-15T11:12:21.246Z,742.50
2019-05-15T11:13:21.149Z,793.13
2019-05-15T11:14:21.054Z,832.50
2019-05-15T11:15:20.987Z,849.38
2019-05-15T11:16:21.246Z,838.13
2019-05-15T11:17:20.778Z,826.88
2019-05-15T11:18:20.670Z,815.63
2019-05-15T11:19:20.572Z,826.88
2019-05-15T11:20:20.478Z,849.38
2019-05-15T11:21:20.383Z,911.25
2019-05-15T11:22:20.285Z,933.75
2019-05-15T11:23:20.507Z,916.88
2019-05-15T11:24:20.099Z,843.75
2019-05-15T11:25:19.996Z,742.50
2019-05-15T11:26:20.024Z,675.00
2019-05-15T11:27:19.803Z,624.38
2019-05-15T11:28:19.721Z,596.25
2019-05-15T11:29:19.613Z,579.38
2019-05-15T11:30:19.558Z,579.38
2019-05-15T11:31:19.494Z,573.75
2019-05-15T11:32:19.329Z,562.50
2019-05-15T11:33:19.398Z,556.88
2019-05-15T11:34:19.137Z,568.13
2019-05-15T11:35:19.097Z,585.00
2019-05-15T11:36:18.943Z,624.38
2019-05-15T11:37:19.027Z,658.13
2019-05-15T11:38:19.534Z,697.50
2019-05-15T11:39:18.659Z,714.38
2019-05-15T11:40:18.862Z,708.75
2019-05-15T11:41:19.200Z,703.13
2019-05-15T11:42:20.277Z,708.75
2019-05-15T11:43:19.738Z,731.25
2019-05-15T11:44:18.767Z,753.75
2019-05-15T11:45:18.550Z,793.13
2019-05-15T11:46:18.536Z,821.25
2019-05-15T11:47:18.408Z,838.13
2019-05-15T11:48:20.616Z,838.13
2019-05-15T11:49:18.208Z,815.63
2019-05-15T11:50:20.508Z,832.50
2019-05-15T11:51:18.457Z,871.88
2019-05-15T11:52:18.780Z,928.13
2019-05-15T11:53:19.247Z,1029.38
2019-05-15T11:54:19.124Z,1147.50
2019-05-15T11:55:17.112Z,1085.63
2019-05-15T11:56:18.850Z,1023.75
2019-05-15T11:57:19.046Z,978.75
2019-05-15T11:58:18.987Z,1006.88
2019-05-15T11:59:18.464Z,1164.38
2019-05-15T12:00:26.179Z,1175.63
2019-05-15T12:01:19.151Z,1220.63
2019-05-15T12:02:18.896Z,1265.63
2019-05-15T12:03:18.658Z,1141.88
2019-05-15T12:04:27.612Z,1018.13
2019-05-15T12:05:18.078Z,894.38
2019-05-15T12:06:22.436Z,804.38
2019-05-15T12:07:18.129Z,753.75
2019-05-15T12:08:17.990Z,714.38
2019-05-15T12:09:18.574Z,691.88
2019-05-15T12:10:18.197Z,691.88
2019-05-15T12:11:30.849Z,714.38
2019-05-15T12:12:17.927Z,731.25
2019-05-15T12:13:15.433Z,725.63
2019-05-15T12:14:18.620Z,731.25
2019-05-15T12:15:15.194Z,731.25
2019-05-15T12:16:15.099Z,725.63
2019-05-15T12:17:15.556Z,703.13
2019-05-15T12:18:14.907Z,691.88
2019-05-15T12:19:17.406Z,691.88
2019-05-15T12:20:14.719Z,703.13
2019-05-15T12:21:19.089Z,725.63
2019-05-15T12:22:14.526Z,742.50
2019-05-15T12:23:14.428Z,748.13
2019-05-15T12:24:14.334Z,731.25
2019-05-15T12:25:14.237Z,725.63
2019-05-15T12:26:14.140Z,720.00
2019-05-15T12:27:18.220Z,708.75
2019-05-15T12:28:13.949Z,703.13
2019-05-15T12:29:13.857Z,697.50
2019-05-15T12:30:13.769Z,708.75
2019-05-15T12:31:13.666Z,725.63
2019-05-15T12:33:13.469Z,759.38
2019-05-15T12:34:13.395Z,765.00
2019-05-15T12:35:13.287Z,765.00
2019-05-15T12:36:13.184Z,759.38